createdAt,value
2017-05-20T00:00:32.050Z,99.99
2017-05-20T00:01:31.731Z,99.99
2017-05-20T00:02:31.731Z,99.99
2017-05-20T00:03:32.002Z,99.99
2017-05-20T00:04:31.675Z,99.99
2017-05-20T00:05:31.960Z,99.99
2017-05-20T00:06:31.944Z,99.99
2017-05-20T00:07:31.924Z,99.99
2017-05-20T00:08:31.910Z,99.99
2017-05-20T00:09:31.890Z,99.99
2017-05-20T00:10:31.899Z,99.99
2017-05-20T00:11:31.851Z,99.99
2017-05-20T00:12:31.832Z,99.99
2017-05-20T00:13:31.532Z,99.99
2017-05-20T00:14:31.851Z,99.99
2017-05-20T00:15:31.481Z,99.99
2017-05-20T00:16:31.782Z,99.99
2017-05-20T00:17:31.501Z,99.99
2017-05-20T00:18:31.734Z,99.99
2017-05-20T00:19:31.713Z,99.99
2017-05-20T00:20:31.699Z,99.99
2017-05-20T00:21:31.831Z,99.99
2017-05-20T00:22:31.357Z,99.99
2017-05-20T00:23:31.652Z,99.99
2017-05-20T00:24:31.332Z,99.99
2017-05-20T00:25:31.605Z,99.99
2017-05-20T00:26:31.592Z,99.99
2017-05-20T00:27:31.564Z,99.99
2017-05-20T00:28:31.555Z,99.99
2017-05-20T00:29:31.573Z,99.99
2017-05-20T00:30:31.521Z,99.99
2017-05-20T00:31:31.632Z,99.99
2017-05-20T00:32:31.489Z,99.99
2017-05-20T00:33:31.460Z,99.99
2017-05-20T00:34:31.458Z,99.99
2017-05-20T00:35:31.434Z,99.99
2017-05-20T00:36:31.097Z,99.99
2017-05-20T00:37:31.403Z,99.99
2017-05-20T00:38:31.382Z,99.99
2017-05-20T00:39:31.403Z,99.99
2017-05-20T00:40:31.492Z,99.99
2017-05-20T00:41:31.452Z,99.99
2017-05-20T00:42:31.304Z,99.99
2017-05-20T00:43:31.297Z,99.99
2017-05-20T00:44:31.273Z,99.99
2017-05-20T00:45:31.305Z,99.99
2017-05-20T00:46:31.252Z,99.99
2017-05-20T00:47:31.292Z,99.99
2017-05-20T00:48:30.884Z,99.99
2017-05-20T00:49:31.310Z,99.99
2017-05-20T00:50:31.171Z,99.99
2017-05-20T00:51:31.294Z,99.99
2017-05-20T00:52:30.811Z,99.99
2017-05-20T00:53:31.117Z,99.99
2017-05-20T00:54:30.774Z,99.99
2017-05-20T00:55:31.069Z,99.99
2017-05-20T00:56:31.054Z,99.99
2017-05-20T00:57:30.762Z,99.99
2017-05-20T00:58:30.708Z,99.99
2017-05-20T00:59:30.985Z,99.99
2017-05-20T01:00:30.977Z,99.99
2017-05-20T01:01:30.951Z,99.99
2017-05-20T01:02:30.940Z,99.99
2017-05-20T01:03:30.610Z,99.99
2017-05-20T01:04:30.905Z,99.99
2017-05-20T01:05:30.892Z,99.99
2017-05-20T01:06:30.866Z,99.99
2017-05-20T01:07:30.855Z,99.99
2017-05-20T01:08:30.830Z,99.99
2017-05-20T01:09:30.803Z,99.99
2017-05-20T01:10:30.794Z,99.99
2017-05-20T01:11:30.765Z,99.99
2017-05-20T01:12:30.764Z,99.99
2017-05-20T01:13:30.432Z,99.99
2017-05-20T01:14:30.710Z,99.99
2017-05-20T01:15:30.711Z,99.99
2017-05-20T01:16:30.693Z,99.99
2017-05-20T01:17:30.358Z,99.99
2017-05-20T01:18:30.650Z,99.99
2017-05-20T01:19:30.312Z,99.99
2017-05-20T01:20:30.304Z,99.99
2017-05-20T01:21:30.285Z,99.99
2017-05-20T01:22:30.571Z,99.99
2017-05-20T01:23:30.547Z,99.99
2017-05-20T01:24:30.535Z,99.99
2017-05-20T01:25:30.214Z,99.99
2017-05-20T01:26:30.492Z,99.99
2017-05-20T01:27:30.170Z,99.99
2017-05-20T01:28:30.473Z,99.99
2017-05-20T01:29:30.143Z,99.99
2017-05-20T01:30:30.418Z,99.99
2017-05-20T01:31:30.092Z,99.99
2017-05-20T01:32:30.072Z,99.99
2017-05-20T01:33:30.371Z,99.99
2017-05-20T01:34:30.055Z,99.99
2017-05-20T01:35:30.334Z,99.99
2017-05-20T01:36:30.313Z,99.99
2017-05-20T01:37:29.983Z,99.99
2017-05-20T01:38:30.281Z,99.99
2017-05-20T01:39:30.269Z,99.99
2017-05-20T01:40:30.242Z,99.99
2017-05-20T01:41:30.229Z,99.99
2017-05-20T01:42:29.895Z,99.99
2017-05-20T01:43:30.191Z,99.99
2017-05-20T01:44:30.162Z,99.99
2017-05-20T01:45:30.154Z,99.99
2017-05-20T01:46:29.839Z,99.99
2017-05-20T01:47:30.116Z,99.99
2017-05-20T01:48:29.784Z,99.99
2017-05-20T01:49:30.091Z,99.99
2017-05-20T01:50:29.743Z,99.99
2017-05-20T01:51:30.124Z,99.99
2017-05-20T01:52:30.023Z,99.99
2017-05-20T01:53:29.783Z,99.99
2017-05-20T01:54:29.978Z,99.99
2017-05-20T01:55:29.982Z,99.99
2017-05-20T01:56:29.949Z,99.99
2017-05-20T01:57:30.033Z,99.99
2017-05-20T01:58:29.605Z,99.99
2017-05-20T01:59:29.995Z,99.99
2017-05-20T02:00:29.568Z,99.99
2017-05-20T02:01:29.862Z,99.99
2017-05-20T02:02:29.842Z,99.99
2017-05-20T02:03:29.868Z,99.99
2017-05-20T02:04:29.492Z,99.99
2017-05-20T02:05:29.852Z,99.99
2017-05-20T02:06:29.764Z,99.99
2017-05-20T02:07:29.823Z,99.99
2017-05-20T02:08:29.723Z,99.99
2017-05-20T02:09:29.710Z,99.99
2017-05-20T02:10:29.678Z,99.99
2017-05-20T02:11:29.675Z,99.99
2017-05-20T02:12:29.341Z,99.99
2017-05-20T02:13:29.635Z,99.99
2017-05-20T02:14:29.301Z,99.99
2017-05-20T02:15:29.594Z,99.99
2017-05-20T02:16:29.271Z,99.99
2017-05-20T02:17:29.330Z,99.99
2017-05-20T02:18:29.234Z,99.99
2017-05-20T02:19:29.591Z,99.99
2017-05-20T02:20:29.497Z,99.99
2017-05-20T02:21:29.185Z,99.99
2017-05-20T02:22:29.471Z,99.99
2017-05-20T02:23:29.148Z,99.99
2017-05-20T02:24:29.493Z,99.99
2017-05-20T02:25:29.473Z,99.99
2017-05-20T02:26:29.132Z,99.99
2017-05-20T02:27:29.463Z,99.99
2017-05-20T02:28:29.343Z,99.99
2017-05-20T02:29:29.052Z,99.99
2017-05-20T02:30:29.002Z,99.99
2017-05-20T02:31:29.294Z,99.99
2017-05-20T02:32:29.277Z,99.99
2017-05-20T02:33:29.023Z,99.99
2017-05-20T02:34:29.233Z,99.99
2017-05-20T02:35:29.236Z,99.99
2017-05-20T02:36:29.263Z,99.99
2017-05-20T02:37:29.215Z,99.99
2017-05-20T02:38:28.854Z,99.99
2017-05-20T02:39:29.146Z,99.99
2017-05-20T02:40:28.815Z,99.99
2017-05-20T02:41:29.103Z,99.99
2017-05-20T02:42:28.783Z,99.99
2017-05-20T02:43:29.070Z,99.99
2017-05-20T02:44:29.151Z,99.99
2017-05-20T02:45:29.034Z,99.99
2017-05-20T02:46:29.013Z,99.99
2017-05-20T02:47:28.993Z,99.99
2017-05-20T02:48:28.985Z,99.99
2017-05-20T02:49:29.013Z,99.99
2017-05-20T02:50:28.982Z,99.99
2017-05-20T02:51:28.917Z,99.99
2017-05-20T02:52:28.605Z,99.99
2017-05-20T02:53:28.880Z,99.99
2017-05-20T02:54:28.866Z,99.99
2017-05-20T02:55:28.854Z,99.99
2017-05-20T02:56:28.518Z,99.99
2017-05-20T02:57:28.501Z,99.99
2017-05-20T02:58:28.840Z,99.99
2017-05-20T02:59:28.775Z,99.99
2017-05-20T03:00:28.800Z,99.99
2017-05-20T03:01:28.724Z,99.99
2017-05-20T03:02:28.703Z,99.99
2017-05-20T03:03:28.379Z,99.99
2017-05-20T03:04:28.674Z,99.99
2017-05-20T03:05:28.652Z,99.99
2017-05-20T03:06:28.635Z,99.99
2017-05-20T03:07:28.613Z,99.99
2017-05-20T03:08:28.611Z,99.99
2017-05-20T03:09:28.585Z,99.99
2017-05-20T03:10:28.554Z,99.99
2017-05-20T03:11:28.224Z,99.99
2017-05-20T03:12:28.510Z,99.99
2017-05-20T03:13:28.495Z,99.99
2017-05-20T03:14:28.474Z,99.99
2017-05-20T03:15:28.459Z,99.99
2017-05-20T03:16:28.444Z,99.99
2017-05-20T03:17:28.415Z,99.99
2017-05-20T03:18:28.413Z,99.99
2017-05-20T03:19:28.077Z,99.99
2017-05-20T03:20:28.402Z,99.99
2017-05-20T03:21:28.343Z,99.99
2017-05-20T03:22:28.014Z,99.99
2017-05-20T03:23:28.303Z,99.99
2017-05-20T03:24:28.296Z,99.99
2017-05-20T03:25:27.963Z,99.99
2017-05-20T03:26:28.249Z,99.99
2017-05-20T03:27:27.923Z,99.99
2017-05-20T03:28:27.912Z,99.99
2017-05-20T03:29:28.194Z,99.99
2017-05-20T03:30:28.175Z,99.99
2017-05-20T03:31:27.848Z,99.99
2017-05-20T03:32:28.146Z,99.99
2017-05-20T03:33:27.904Z,99.99
2017-05-20T03:34:27.795Z,99.99
2017-05-20T03:35:27.853Z,99.99
2017-05-20T03:36:27.751Z,99.99
2017-05-20T03:37:28.045Z,99.99
2017-05-20T03:38:28.025Z,99.99
2017-05-20T03:39:27.701Z,99.99
2017-05-20T03:40:27.985Z,99.99
2017-05-20T03:41:27.700Z,99.99
2017-05-20T03:42:27.942Z,99.99
2017-05-20T03:43:27.713Z,99.99
2017-05-20T03:44:27.594Z,99.99
2017-05-20T03:45:27.677Z,99.99
2017-05-20T03:46:27.562Z,99.99
2017-05-20T03:47:27.633Z,99.99
2017-05-20T03:48:27.824Z,99.99
2017-05-20T03:49:27.826Z,99.99
2017-05-20T03:50:27.787Z,99.99
2017-05-20T03:51:27.554Z,99.99
2017-05-20T03:52:27.754Z,99.99
2017-05-20T03:53:27.877Z,99.99
2017-05-20T03:54:27.713Z,99.99
2017-05-20T03:55:27.435Z,99.99
2017-05-20T03:56:27.363Z,99.99
2017-05-20T03:57:27.755Z,99.99
2017-05-20T03:58:27.633Z,99.99
2017-05-20T03:59:27.613Z,99.99
2017-05-20T04:00:27.600Z,99.99
2017-05-20T04:01:27.627Z,99.99
2017-05-20T04:02:27.251Z,99.99
2017-05-20T04:03:27.234Z,99.99
2017-05-20T04:04:27.216Z,99.99
2017-05-20T04:05:27.513Z,99.99
2017-05-20T04:06:27.475Z,99.99
2017-05-20T04:07:27.304Z,99.99
2017-05-20T04:08:27.458Z,99.99
2017-05-20T04:09:27.506Z,99.99
2017-05-20T04:10:27.453Z,99.99
2017-05-20T04:11:27.392Z,99.99
2017-05-20T04:12:27.062Z,99.99
2017-05-20T04:13:27.044Z,99.99
2017-05-20T04:14:27.383Z,99.99
2017-05-20T04:15:27.113Z,99.99
2017-05-20T04:16:26.983Z,99.99
2017-05-20T04:17:27.422Z,99.99
2017-05-20T04:18:27.356Z,99.99
2017-05-20T04:19:27.031Z,99.99
2017-05-20T04:20:27.359Z,99.99
2017-05-20T04:21:27.195Z,99.99
2017-05-20T04:22:27.231Z,99.99
2017-05-20T04:23:26.846Z,99.99
2017-05-20T04:24:26.825Z,99.99
2017-05-20T04:25:27.115Z,99.99
2017-05-20T04:26:27.103Z,99.99
2017-05-20T04:27:27.081Z,99.99
2017-05-20T04:28:26.760Z,99.99
2017-05-20T04:29:27.042Z,99.99
2017-05-20T04:30:27.047Z,99.99
2017-05-20T04:31:26.694Z,99.99
2017-05-20T04:32:26.977Z,99.99
2017-05-20T04:33:26.978Z,99.99
2017-05-20T04:34:26.651Z,99.99
2017-05-20T04:35:26.935Z,99.99
2017-05-20T04:36:26.619Z,99.99
2017-05-20T04:37:26.902Z,99.99
2017-05-20T04:38:26.872Z,99.99
2017-05-20T04:39:26.543Z,99.99
2017-05-20T04:40:26.533Z,99.99
2017-05-20T04:41:26.511Z,99.99
2017-05-20T04:42:26.793Z,99.99
2017-05-20T04:43:26.772Z,99.99
2017-05-20T04:44:26.762Z,99.99
2017-05-20T04:45:26.434Z,99.99
2017-05-20T04:46:26.744Z,99.99
2017-05-20T04:47:26.695Z,99.99
2017-05-20T04:48:26.684Z,99.99
2017-05-20T04:49:26.669Z,99.99
2017-05-20T04:50:26.644Z,99.99
2017-05-20T04:51:26.642Z,99.99
2017-05-20T04:52:26.623Z,99.99
2017-05-20T04:53:26.600Z,99.99
2017-05-20T04:54:26.575Z,99.99
2017-05-20T04:55:26.553Z,99.99
2017-05-20T04:56:26.536Z,99.99
2017-05-20T04:57:26.212Z,99.99
2017-05-20T04:58:26.486Z,99.99
2017-05-20T04:59:26.475Z,99.99
2017-05-20T05:00:26.467Z,99.99
2017-05-20T05:01:26.127Z,99.99
2017-05-20T05:02:26.102Z,99.99
2017-05-20T05:03:26.392Z,99.99
2017-05-20T05:04:26.393Z,99.99
2017-05-20T05:05:26.365Z,99.99
2017-05-20T05:06:26.036Z,99.99
2017-05-20T05:07:26.316Z,99.99
2017-05-20T05:08:25.993Z,99.99
2017-05-20T05:09:25.985Z,99.99
2017-05-20T05:10:26.263Z,99.99
2017-05-20T05:11:26.241Z,99.99
2017-05-20T05:12:26.224Z,99.99
2017-05-20T05:13:26.311Z,99.99
2017-05-20T05:14:26.192Z,99.99
2017-05-20T05:15:26.222Z,99.99
2017-05-20T05:16:26.144Z,99.99
2017-05-20T05:17:25.884Z,99.99
2017-05-20T05:18:25.803Z,99.99
2017-05-20T05:19:26.160Z,99.99
2017-05-20T05:20:26.072Z,99.99
2017-05-20T05:21:25.851Z,99.99
2017-05-20T05:22:26.037Z,99.99
2017-05-20T05:23:26.017Z,99.99
2017-05-20T05:24:25.996Z,99.99
2017-05-20T05:25:25.993Z,99.99
2017-05-20T05:26:25.956Z,99.99
2017-05-20T05:27:26.003Z,99.99
2017-05-20T05:28:25.624Z,99.99
2017-05-20T05:29:25.601Z,99.99
2017-05-20T05:30:25.577Z,99.99
2017-05-20T05:31:25.941Z,99.99
2017-05-20T05:32:25.535Z,99.99
2017-05-20T05:33:25.873Z,99.99
2017-05-20T05:34:25.814Z,99.99
2017-05-20T05:35:25.584Z,99.99
2017-05-20T05:36:25.475Z,99.99
2017-05-20T05:37:25.518Z,99.99
2017-05-20T05:38:25.874Z,99.99
2017-05-20T05:39:25.812Z,99.99
2017-05-20T05:40:25.782Z,99.99
2017-05-20T05:41:25.679Z,99.99
2017-05-20T05:42:25.351Z,99.99
2017-05-20T05:43:25.642Z,99.99
2017-05-20T05:44:25.638Z,99.99
2017-05-20T05:45:25.719Z,99.99
2017-05-20T05:46:25.652Z,99.99
2017-05-20T05:47:25.601Z,99.99
2017-05-20T05:48:25.693Z,99.99
2017-05-20T05:49:25.571Z,99.99
2017-05-20T05:50:25.194Z,99.99
2017-05-20T05:51:25.542Z,99.99
2017-05-20T05:52:25.522Z,99.99
2017-05-20T05:53:25.498Z,99.99
2017-05-20T05:54:25.490Z,99.99
2017-05-20T05:55:25.463Z,99.99
2017-05-20T05:56:25.091Z,99.99
2017-05-20T05:57:25.394Z,99.99
2017-05-20T05:58:25.063Z,99.99
2017-05-20T05:59:25.039Z,99.99
2017-05-20T06:00:25.325Z,99.99
2017-05-20T06:01:25.311Z,99.99
2017-05-20T06:02:25.287Z,99.99
2017-05-20T06:03:24.961Z,99.99
2017-05-20T06:04:24.949Z,99.99
2017-05-20T06:05:25.230Z,99.99
2017-05-20T06:06:25.217Z,99.99
2017-05-20T06:07:24.885Z,99.99
2017-05-20T06:08:24.873Z,99.99
2017-05-20T06:09:24.847Z,99.99
2017-05-20T06:10:24.840Z,99.99
2017-05-20T06:11:25.128Z,99.99
2017-05-20T06:12:25.182Z,99.99
2017-05-20T06:13:25.106Z,99.99
2017-05-20T06:14:25.119Z,99.99
2017-05-20T06:15:25.045Z,99.99
2017-05-20T06:16:25.092Z,99.99
2017-05-20T06:17:25.011Z,99.99
2017-05-20T06:18:24.996Z,99.99
2017-05-20T06:19:24.987Z,99.99
2017-05-20T06:20:24.959Z,99.99
2017-05-20T06:21:24.948Z,99.99
2017-05-20T06:22:24.629Z,99.99
2017-05-20T06:23:24.586Z,99.99
2017-05-20T06:24:24.885Z,99.99
2017-05-20T06:25:24.867Z,99.99
2017-05-20T06:26:24.875Z,99.99
2017-05-20T06:27:24.825Z,99.99
2017-05-20T06:28:24.803Z,99.99
2017-05-20T06:29:24.792Z,99.99
2017-05-20T06:30:24.775Z,99.99
2017-05-20T06:31:24.753Z,99.99
2017-05-20T06:32:24.424Z,99.99
2017-05-20T06:33:24.722Z,99.99
2017-05-20T06:34:24.404Z,99.99
2017-05-20T06:35:24.686Z,99.99
2017-05-20T06:36:24.661Z,99.99
2017-05-20T06:37:24.352Z,99.99
2017-05-20T06:38:24.621Z,99.99
2017-05-20T06:39:24.311Z,99.99
2017-05-20T06:40:24.590Z,99.99
2017-05-20T06:41:24.279Z,99.99
2017-05-20T06:42:24.250Z,99.99
2017-05-20T06:43:24.530Z,99.99
2017-05-20T06:44:24.523Z,99.99
2017-05-20T06:45:24.501Z,99.99
2017-05-20T06:46:24.481Z,99.99
2017-05-20T06:47:24.464Z,99.99
2017-05-20T06:48:24.142Z,99.99
2017-05-20T06:49:24.451Z,99.99
2017-05-20T06:50:24.109Z,99.99
2017-05-20T06:51:24.401Z,99.99
2017-05-20T06:52:24.380Z,99.99
2017-05-20T06:53:24.362Z,99.99
2017-05-20T06:54:24.353Z,99.99
2017-05-20T06:55:24.322Z,99.99
2017-05-20T06:56:24.312Z,99.99
2017-05-20T06:57:24.293Z,99.99
2017-05-20T06:58:24.278Z,99.99
2017-05-20T06:59:24.253Z,99.99
2017-05-20T07:00:24.242Z,99.99
2017-05-20T07:01:24.213Z,99.99
2017-05-20T07:02:24.272Z,99.99
2017-05-20T07:03:24.182Z,99.99
2017-05-20T07:04:24.164Z,99.99
2017-05-20T07:05:24.145Z,99.99
2017-05-20T07:06:24.134Z,99.99
2017-05-20T07:07:24.117Z,99.99
2017-05-20T07:08:24.092Z,99.99
2017-05-20T07:09:24.090Z,99.99
2017-05-20T07:10:24.078Z,99.99
2017-05-20T07:11:23.740Z,99.99
2017-05-20T07:12:24.031Z,99.99
2017-05-20T07:13:24.003Z,99.99
2017-05-20T07:14:23.990Z,99.99
2017-05-20T07:15:23.974Z,99.99
2017-05-20T07:16:23.645Z,99.99
2017-05-20T07:17:23.941Z,99.99
2017-05-20T07:18:23.984Z,99.99
2017-05-20T07:19:23.598Z,99.99
2017-05-20T07:20:23.982Z,99.99
2017-05-20T07:21:23.933Z,99.99
2017-05-20T07:22:23.871Z,99.99
2017-05-20T07:23:23.852Z,99.99
2017-05-20T07:24:23.841Z,99.99
2017-05-20T07:25:23.501Z,99.99
2017-05-20T07:26:23.812Z,99.99
2017-05-20T07:27:23.781Z,99.99
2017-05-20T07:28:23.802Z,99.99
2017-05-20T07:29:23.755Z,99.99
2017-05-20T07:30:23.803Z,99.99
2017-05-20T07:31:23.713Z,99.99
2017-05-20T07:32:23.698Z,99.99
2017-05-20T07:33:23.682Z,99.99
2017-05-20T07:34:23.666Z,99.99
2017-05-20T07:35:23.342Z,99.99
2017-05-20T07:36:23.634Z,99.99
2017-05-20T07:37:23.610Z,99.99
2017-05-20T07:38:23.623Z,99.99
2017-05-20T07:39:23.590Z,99.99
2017-05-20T07:40:23.571Z,99.99
2017-05-20T07:41:23.554Z,99.99
2017-05-20T07:42:23.531Z,99.99
2017-05-20T07:43:23.517Z,99.99
2017-05-20T07:44:23.191Z,99.99
2017-05-20T07:45:23.483Z,99.99
2017-05-20T07:46:23.160Z,99.99
2017-05-20T07:47:23.450Z,99.99
2017-05-20T07:48:23.533Z,99.99
2017-05-20T07:49:23.429Z,99.99
2017-05-20T07:50:23.457Z,99.99
2017-05-20T07:51:23.391Z,99.99
2017-05-20T07:52:23.062Z,99.99
2017-05-20T07:53:23.372Z,99.99
2017-05-20T07:54:23.342Z,99.99
2017-05-20T07:55:23.319Z,99.99
2017-05-20T07:56:23.314Z,99.99
2017-05-20T07:57:22.990Z,99.99
2017-05-20T07:58:23.283Z,99.63
2017-05-20T07:59:23.263Z,99.29
2017-05-20T08:00:23.253Z,97.28
2017-05-20T08:01:23.242Z,97.23
2017-05-20T08:02:22.942Z,97.14
2017-05-20T08:03:22.902Z,97.23
2017-05-20T08:04:23.182Z,96.18
2017-05-20T08:05:23.178Z,96.22
2017-05-20T08:06:23.164Z,96.42
2017-05-20T08:07:23.140Z,96.13
2017-05-20T08:08:22.810Z,96.56
2017-05-20T08:09:23.107Z,95.31
2017-05-20T08:10:22.782Z,94.88
2017-05-20T08:11:23.074Z,94.98
2017-05-20T08:12:22.753Z,94.4
2017-05-20T08:13:23.044Z,94.88
2017-05-20T08:14:23.035Z,94.83
2017-05-20T08:15:23.011Z,93.87
2017-05-20T08:16:23.003Z,92.53
2017-05-20T08:17:22.987Z,91.96
2017-05-20T08:18:22.665Z,92.38
2017-05-20T08:19:22.963Z,92
2017-05-20T08:20:22.951Z,92.29
2017-05-20T08:21:22.921Z,90.89
2017-05-20T08:22:22.905Z,89.93
2017-05-20T08:23:22.893Z,89.83
2017-05-20T08:24:22.881Z,92.33
2017-05-20T08:25:22.862Z,91.42
2017-05-20T08:26:22.842Z,91.61
2017-05-20T08:27:22.842Z,92.19
2017-05-20T08:28:22.817Z,91.66
2017-05-20T08:29:22.811Z,89.36
2017-05-20T08:30:22.484Z,89.45
2017-05-20T08:31:22.782Z,89.64
2017-05-20T08:32:22.774Z,91.04
2017-05-20T08:33:22.448Z,92.38
2017-05-20T08:34:22.447Z,91.08
2017-05-20T08:35:22.721Z,88.15
2017-05-20T08:36:22.410Z,88.92
2017-05-20T08:37:22.712Z,89.59
2017-05-20T08:38:22.383Z,89.15
2017-05-20T08:39:22.672Z,87.81
2017-05-20T08:40:22.372Z,86.46
2017-05-20T08:41:22.716Z,86.56
2017-05-20T08:42:22.632Z,85.06
2017-05-20T08:43:22.319Z,83.81
2017-05-20T08:44:22.619Z,85.06
2017-05-20T08:45:22.601Z,85.64
2017-05-20T08:46:22.292Z,84.91
2017-05-20T08:47:22.589Z,83.99
2017-05-20T08:48:22.569Z,83.51
2017-05-20T08:49:22.570Z,82.74
2017-05-20T08:50:22.550Z,83.8
2017-05-20T08:51:22.234Z,82.74
2017-05-20T08:52:22.234Z,83.61
2017-05-20T08:53:22.528Z,82.93
2017-05-20T08:54:22.216Z,84.43
2017-05-20T08:55:22.501Z,85.35
2017-05-20T08:56:22.506Z,84.05
2017-05-20T08:57:22.490Z,82.45
2017-05-20T08:58:22.164Z,82.02
2017-05-20T08:59:22.169Z,82.45
2017-05-20T09:00:22.473Z,81.96
2017-05-20T09:01:22.445Z,82.85
2017-05-20T09:02:22.444Z,83.91
2017-05-20T09:03:22.135Z,83.62
2017-05-20T09:04:22.422Z,83.04
2017-05-20T09:05:22.414Z,82.5
2017-05-20T09:06:22.403Z,82.21
2017-05-20T09:07:22.401Z,82.21
2017-05-20T09:08:22.091Z,82.54
2017-05-20T09:09:22.079Z,83.03
2017-05-20T09:10:22.371Z,84.92
2017-05-20T09:11:22.058Z,85.55
2017-05-20T09:12:22.361Z,86.22
2017-05-20T09:13:22.035Z,86.22
2017-05-20T09:14:22.027Z,86.99
2017-05-20T09:15:22.332Z,87.15
2017-05-20T09:16:22.320Z,88.3
2017-05-20T09:17:22.004Z,87.92
2017-05-20T09:18:21.995Z,88.1
2017-05-20T09:19:22.282Z,87.96
2017-05-20T09:20:22.274Z,88.35
2017-05-20T09:21:21.953Z,88.01
2017-05-20T09:22:22.253Z,88.49
2017-05-20T09:23:22.239Z,88.49
2017-05-20T09:24:21.925Z,88.83
2017-05-20T09:25:21.932Z,89.5
2017-05-20T09:26:22.197Z,89.31
2017-05-20T09:27:21.896Z,89.79
2017-05-20T09:28:22.172Z,89.94
2017-05-20T09:29:22.176Z,90.9
2017-05-20T09:30:22.144Z,91.19
2017-05-20T09:31:22.152Z,90.9
2017-05-20T09:32:22.125Z,90.84
2017-05-20T09:33:22.121Z,90.75
2017-05-20T09:34:22.107Z,90.89
2017-05-20T09:35:22.081Z,88.92
2017-05-20T09:36:22.070Z,84.83
2017-05-20T09:37:21.842Z,83.81
2017-05-20T09:38:21.741Z,81.93
2017-05-20T09:39:21.810Z,82.17
2017-05-20T09:40:22.031Z,82.04
2017-05-20T09:41:22.017Z,81.07
2017-05-20T09:42:21.702Z,82.76
2017-05-20T09:43:21.743Z,82.86
2017-05-20T09:44:22.041Z,81.9
2017-05-20T09:45:21.974Z,79.6
2017-05-20T09:46:22.009Z,80.13
2017-05-20T09:47:21.983Z,79.69
2017-05-20T09:48:21.630Z,80.66
2017-05-20T09:49:21.971Z,80.19
2017-05-20T09:50:21.905Z,79.36
2017-05-20T09:51:21.912Z,79.11
2017-05-20T09:52:21.883Z,77.17
2017-05-20T09:53:21.906Z,75.63
2017-05-20T09:54:21.868Z,76.21
2017-05-20T09:55:21.842Z,75.76
2017-05-20T09:56:21.834Z,75.03
2017-05-20T09:57:21.832Z,75.51
2017-05-20T09:58:21.834Z,74.4
2017-05-20T09:59:21.833Z,74.78
2017-05-20T10:00:21.890Z,74.72
2017-05-20T10:01:21.796Z,74.33
2017-05-20T10:02:21.797Z,74.62
2017-05-20T10:03:21.773Z,74.88
2017-05-20T10:04:21.773Z,75.07
2017-05-20T10:05:21.754Z,74.55
2017-05-20T10:06:21.742Z,75.9
2017-05-20T10:07:21.738Z,76.15
2017-05-20T10:08:21.733Z,77.01
2017-05-20T10:09:21.408Z,77.5
2017-05-20T10:10:21.727Z,78.71
2017-05-20T10:11:21.701Z,79.58
2017-05-20T10:12:21.694Z,80.15
2017-05-20T10:13:21.673Z,80.35
2017-05-20T10:14:21.350Z,79.36
2017-05-20T10:15:21.665Z,77.19
2017-05-20T10:16:21.641Z,75.68
2017-05-20T10:17:21.636Z,75.1
2017-05-20T10:18:21.625Z,74.85
2017-05-20T10:19:21.603Z,74.91
2017-05-20T10:20:21.593Z,74.72
2017-05-20T10:21:21.282Z,75.2
2017-05-20T10:22:21.575Z,75.16
2017-05-20T10:23:21.594Z,74.82
2017-05-20T10:24:21.251Z,73.31
2017-05-20T10:25:21.244Z,73.63
2017-05-20T10:26:21.531Z,70.68
2017-05-20T10:27:21.523Z,70.39
2017-05-20T10:28:21.223Z,70
2017-05-20T10:29:21.514Z,71.7
2017-05-20T10:30:21.501Z,72.41
2017-05-20T10:31:21.521Z,73.18
2017-05-20T10:32:21.471Z,74.14
2017-05-20T10:33:21.481Z,74.52
2017-05-20T10:34:21.454Z,75.59
2017-05-20T10:35:21.465Z,75.26
2017-05-20T10:36:21.431Z,75.8
2017-05-20T10:37:21.116Z,75.55
2017-05-20T10:38:21.411Z,75.74
2017-05-20T10:39:21.478Z,75.2
2017-05-20T10:40:21.386Z,74.62
2017-05-20T10:41:21.451Z,74.97
2017-05-20T10:42:21.374Z,76.28
2017-05-20T10:43:21.425Z,76.28
2017-05-20T10:44:21.351Z,76.03
2017-05-20T10:45:21.333Z,75.49
2017-05-20T10:46:21.313Z,75.2
2017-05-20T10:47:21.322Z,75.26
2017-05-20T10:48:21.294Z,76.42
2017-05-20T10:49:21.289Z,76.76
2017-05-20T10:50:21.323Z,77.25
2017-05-20T10:51:21.263Z,75.8
2017-05-20T10:52:20.951Z,76.15
2017-05-20T10:53:21.253Z,76.25
2017-05-20T10:54:21.226Z,76.53
2017-05-20T10:55:21.221Z,76.53
2017-05-20T10:56:21.203Z,76.73
2017-05-20T10:57:21.199Z,76.86
2017-05-20T10:58:20.861Z,76.23
2017-05-20T10:59:21.164Z,74.91
2017-05-20T11:00:21.164Z,74.85
2017-05-20T11:01:20.823Z,72.67
2017-05-20T11:02:20.815Z,72.28
2017-05-20T11:03:21.113Z,71.74
2017-05-20T11:04:20.798Z,71.78
2017-05-20T11:05:21.092Z,69.59
2017-05-20T11:06:21.072Z,69.62
2017-05-20T11:07:21.072Z,71.14
2017-05-20T11:08:21.065Z,72.42
2017-05-20T11:09:21.043Z,70.34
2017-05-20T11:10:21.035Z,68.3
2017-05-20T11:11:21.025Z,68.3
2017-05-20T11:12:21.011Z,68.49
2017-05-20T11:13:21.001Z,69.4
2017-05-20T11:14:21.006Z,70.37
2017-05-20T11:15:20.982Z,69.21
2017-05-20T11:16:20.972Z,67.56
2017-05-20T11:17:20.660Z,67.43
2017-05-20T11:18:20.964Z,69.3
2017-05-20T11:19:20.950Z,69.17
2017-05-20T11:20:20.941Z,70.23
2017-05-20T11:21:20.922Z,69.26
2017-05-20T11:22:20.605Z,67.94
2017-05-20T11:23:20.894Z,67.17
2017-05-20T11:24:20.883Z,66.91
2017-05-20T11:25:20.574Z,66.14
2017-05-20T11:26:20.860Z,65.56
2017-05-20T11:27:20.543Z,66.5
2017-05-20T11:28:20.853Z,66.4
2017-05-20T11:29:20.836Z,66.69
2017-05-20T11:30:20.836Z,66.36
2017-05-20T11:31:20.512Z,67.24
2017-05-20T11:32:20.816Z,68.07
2017-05-20T11:33:20.804Z,69.39
2017-05-20T11:34:20.793Z,70.13
2017-05-20T11:35:20.773Z,70.8
2017-05-20T11:36:20.776Z,71.83
2017-05-20T11:37:20.763Z,72.56
2017-05-20T11:38:20.734Z,73.14
2017-05-20T11:39:20.730Z,72.95
2017-05-20T11:40:20.411Z,72.12
2017-05-20T11:41:20.706Z,71.19
2017-05-20T11:42:20.385Z,70.9
2017-05-20T11:43:20.694Z,69.71
2017-05-20T11:44:20.672Z,67.82
2017-05-20T11:45:20.666Z,65.63
2017-05-20T11:46:20.671Z,65.4
2017-05-20T11:47:20.678Z,65.4
2017-05-20T11:48:20.323Z,64.72
2017-05-20T11:49:20.619Z,65.08
2017-05-20T11:50:20.304Z,66.2
2017-05-20T11:51:20.595Z,67.14
2017-05-20T11:52:20.588Z,67.04
2017-05-20T11:53:20.271Z,67.43
2017-05-20T11:54:20.303Z,68.39
2017-05-20T11:55:20.556Z,68.91
2017-05-20T11:56:20.547Z,70.2
2017-05-20T11:57:20.537Z,68.59
2017-05-20T11:58:20.523Z,68.1
2017-05-20T11:59:20.203Z,66.94
2017-05-20T12:00:20.499Z,65.4
2017-05-20T12:01:20.489Z,66.05
2017-05-20T12:02:20.475Z,66.33
2017-05-20T12:03:20.161Z,66.43
2017-05-20T12:04:20.454Z,68.59
2017-05-20T12:05:20.133Z,69.46
2017-05-20T12:06:20.116Z,69.17
2017-05-20T12:07:20.111Z,69.3
2017-05-20T12:08:20.413Z,69.14
2017-05-20T12:09:20.411Z,67.01
2017-05-20T12:10:20.404Z,66.82
2017-05-20T12:11:20.380Z,66.63
2017-05-20T12:12:20.383Z,66.43
2017-05-20T12:13:20.046Z,67.17
2017-05-20T12:14:20.344Z,67.75
2017-05-20T12:15:20.324Z,68.4
2017-05-20T12:16:20.316Z,68.68
2017-05-20T12:17:20.007Z,67.91
2017-05-20T12:18:20.303Z,68.07
2017-05-20T12:19:20.288Z,68.46
2017-05-20T12:20:20.034Z,67.97
2017-05-20T12:21:19.961Z,68.75
2017-05-20T12:22:20.015Z,68.49
2017-05-20T12:23:20.249Z,69.23
2017-05-20T12:24:20.241Z,70.2
2017-05-20T12:25:19.920Z,70.48
2017-05-20T12:26:19.906Z,69.04
2017-05-20T12:27:20.193Z,69.78
2017-05-20T12:28:20.198Z,70.45
2017-05-20T12:29:19.880Z,70.06
2017-05-20T12:30:20.282Z,70.42
2017-05-20T12:31:20.153Z,71.19
2017-05-20T12:32:19.965Z,70.7
2017-05-20T12:33:20.130Z,71.58
2017-05-20T12:34:19.823Z,71.44
2017-05-20T12:35:20.115Z,72.21
2017-05-20T12:36:19.894Z,72.21
2017-05-20T12:37:20.085Z,72.02
2017-05-20T12:38:20.205Z,71.58
2017-05-20T12:39:19.763Z,71.77
2017-05-20T12:40:19.821Z,71.28
2017-05-20T12:41:20.137Z,71.38
2017-05-20T12:42:19.823Z,71.09
2017-05-20T12:43:20.085Z,70.61
2017-05-20T12:44:19.708Z,70.09
2017-05-20T12:45:20.088Z,71.15
2017-05-20T12:46:19.986Z,71.06
2017-05-20T12:47:19.655Z,72.02
2017-05-20T12:48:19.957Z,72.66
2017-05-20T12:49:19.947Z,71.92
2017-05-20T12:50:19.632Z,70.48
2017-05-20T12:51:19.996Z,72.02
2017-05-20T12:52:19.966Z,71.67
2017-05-20T12:53:19.605Z,69.58
2017-05-20T12:54:19.947Z,69.1